createdAt,value
2023-03-10T00:01:16.673Z,11.49
2023-03-10T00:03:45.310Z,12.07
2023-03-10T00:06:15.773Z,11.39
2023-03-10T00:08:44.306Z,10.48
2023-03-10T00:11:12.441Z,9.78
2023-03-10T00:13:40.740Z,9.21
2023-03-10T00:16:09.146Z,9.04
2023-03-10T00:18:37.048Z,10.09
2023-03-10T00:21:05.321Z,11.13
2023-03-10T00:23:33.948Z,11.82
2023-03-10T00:26:03.657Z,12.13
2023-03-10T00:28:31.426Z,11.42
2023-03-10T00:31:04.631Z,10.59
2023-03-10T00:33:33.877Z,9.96
2023-03-10T00:36:14.797Z,9.49
2023-03-10T00:38:44.318Z,9.13
2023-03-10T00:41:14.584Z,9.17
2023-03-10T00:43:43.549Z,10.37
2023-03-10T00:46:12.014Z,11.74
2023-03-10T00:48:40.120Z,12.39
2023-03-10T00:51:08.505Z,11.75
2023-03-10T00:53:38.120Z,10.92
2023-03-10T00:56:13.642Z,10.28
2023-03-10T00:58:42.537Z,9.80
2023-03-10T01:01:19.794Z,9.42
2023-03-10T01:03:48.552Z,9.09
2023-03-10T01:06:16.290Z,9.17
2023-03-10T01:08:44.365Z,10.46
2023-03-10T01:11:15.736Z,11.75
2023-03-10T01:13:44.170Z,12.27
2023-03-10T01:16:12.661Z,11.53
2023-03-10T01:18:41.070Z,10.66
2023-03-10T01:21:21.552Z,9.99
2023-03-10T01:23:49.483Z,9.45
2023-03-10T01:26:19.122Z,9.27
2023-03-10T01:28:48.785Z,10.38
2023-03-10T01:31:18.360Z,11.54
2023-03-10T01:33:46.962Z,12.03
2023-03-10T01:36:20.109Z,11.30
2023-03-10T01:38:48.698Z,10.40
2023-03-10T01:41:16.990Z,9.73
2023-03-10T01:43:47.097Z,9.22
2023-03-10T01:46:38.249Z,8.81
2023-03-10T01:49:36.386Z,8.95
2023-03-10T01:52:11.449Z,10.66
2023-03-10T01:55:04.399Z,11.84
2023-03-10T01:57:38.201Z,12.13
2023-03-10T02:00:16.221Z,11.20
2023-03-10T02:03:00.140Z,10.35
2023-03-10T02:05:28.538Z,9.74
2023-03-10T02:07:56.748Z,9.26
2023-03-10T02:10:24.912Z,8.89
2023-03-10T02:12:52.945Z,8.93
2023-03-10T02:15:21.756Z,10.13
2023-03-10T02:17:52.294Z,11.23
2023-03-10T02:21:17.037Z,11.89
2023-03-10T02:24:04.049Z,11.57
2023-03-10T02:26:53.411Z,10.70
2023-03-10T02:29:42.758Z,10.01
2023-03-10T02:32:17.970Z,9.46
2023-03-10T02:34:46.303Z,9.11
2023-03-10T02:37:23.906Z,9.19
2023-03-10T02:39:51.826Z,10.56
2023-03-10T02:42:20.244Z,11.74
2023-03-10T02:44:49.094Z,12.25
2023-03-10T02:47:16.934Z,11.55
2023-03-10T02:49:45.043Z,10.73
2023-03-10T02:52:21.974Z,10.12
2023-03-10T02:54:49.764Z,9.67
2023-03-10T02:57:17.629Z,9.36
2023-03-10T02:59:45.682Z,9.09
2023-03-10T03:02:13.814Z,9.10
2023-03-10T03:04:41.782Z,10.26
2023-03-10T03:07:09.833Z,11.52
2023-03-10T03:09:39.681Z,12.38
2023-03-10T03:12:08.536Z,12.24
2023-03-10T03:14:36.655Z,11.46
2023-03-10T03:17:06.316Z,10.79
2023-03-10T03:19:34.227Z,10.30
2023-03-10T03:22:02.413Z,9.91
2023-03-10T03:24:32.132Z,9.62
2023-03-10T03:26:59.941Z,9.37
2023-03-10T03:29:28.813Z,9.16
2023-03-10T03:31:56.902Z,9.29
2023-03-10T03:34:28.646Z,10.73
2023-03-10T03:36:58.897Z,11.99
2023-03-10T03:39:31.345Z,12.48
2023-03-10T03:42:01.330Z,11.83
2023-03-10T03:44:32.847Z,11.07
2023-03-10T03:47:01.114Z,10.54
2023-03-10T03:49:29.580Z,10.16
2023-03-10T03:51:57.831Z,9.86
2023-03-10T03:54:25.632Z,9.61
2023-03-10T03:56:53.679Z,9.72
2023-03-10T03:59:21.904Z,10.95
2023-03-10T04:01:50.296Z,12.12
2023-03-10T04:04:19.170Z,12.70
2023-03-10T04:06:47.514Z,12.12
2023-03-10T04:09:15.686Z,11.37
2023-03-10T04:11:44.304Z,10.81
2023-03-10T04:14:12.188Z,10.41
2023-03-10T04:16:40.075Z,10.38
2023-03-10T04:19:08.642Z,11.53
2023-03-10T04:21:39.994Z,12.81
2023-03-10T04:24:08.820Z,13.36
2023-03-10T04:26:38.005Z,12.71
2023-03-10T04:29:06.218Z,11.96
2023-03-10T04:31:34.742Z,11.38
2023-03-10T04:34:03.539Z,10.92
2023-03-10T04:36:32.474Z,10.59
2023-03-10T04:39:01.848Z,10.66
2023-03-10T04:41:31.839Z,11.91
2023-03-10T04:43:59.901Z,13.16
2023-03-10T04:46:28.783Z,13.77
2023-03-10T04:48:57.453Z,13.18
2023-03-10T04:51:25.595Z,12.42
2023-03-10T04:53:55.109Z,11.86
2023-03-10T04:56:23.256Z,11.46
2023-03-10T04:58:51.446Z,11.15
2023-03-10T05:01:19.626Z,11.14
2023-03-10T05:03:50.890Z,12.29
2023-03-10T05:06:21.573Z,13.41
2023-03-10T05:08:57.087Z,14.22
2023-03-10T05:11:25.089Z,13.99
2023-03-10T05:13:52.935Z,13.12
2023-03-10T05:16:22.953Z,12.38
2023-03-10T05:18:51.588Z,11.84
2023-03-10T05:21:22.799Z,11.45
2023-03-10T05:23:51.056Z,11.13
2023-03-10T05:26:19.356Z,11.17
2023-03-10T05:28:47.755Z,12.32
2023-03-10T05:31:17.640Z,13.51
2023-03-10T05:33:46.956Z,14.14
2023-03-10T05:36:15.058Z,13.57
2023-03-10T05:38:44.737Z,12.68
2023-03-10T05:41:14.483Z,12.05
2023-03-10T05:43:43.120Z,11.57
2023-03-10T05:46:12.128Z,11.67
2023-03-10T05:48:45.052Z,12.87
2023-03-10T05:51:13.280Z,13.87
2023-03-10T05:53:42.005Z,14.28
2023-03-10T05:56:15.352Z,13.63
2023-03-10T05:58:44.357Z,12.90
2023-03-10T06:01:13.754Z,12.35
2023-03-10T06:03:41.851Z,11.95
2023-03-10T06:06:10.968Z,11.64
2023-03-10T06:08:38.933Z,11.41
2023-03-10T06:11:06.729Z,11.21
2023-03-10T06:13:34.856Z,11.29
2023-03-10T06:16:05.533Z,12.44
2023-03-10T06:18:35.147Z,13.75
2023-03-10T06:21:08.125Z,14.38
2023-03-10T06:23:36.904Z,13.85
2023-03-10T06:26:11.131Z,13.16
2023-03-10T06:28:41.335Z,12.64
2023-03-10T06:31:18.975Z,12.25
2023-03-10T06:33:47.076Z,11.93
2023-03-10T06:36:16.666Z,11.69
2023-03-10T06:38:45.567Z,11.47
2023-03-10T06:41:13.873Z,11.29
2023-03-10T06:43:41.734Z,11.46
2023-03-10T06:46:11.220Z,12.73
2023-03-10T06:48:41.069Z,14.01
2023-03-10T06:51:11.883Z,14.63
2023-03-10T06:53:40.596Z,14.06
2023-03-10T06:56:19.685Z,13.39
2023-03-10T06:58:48.427Z,12.86
2023-03-10T07:01:25.573Z,12.51
2023-03-10T07:03:54.230Z,12.24
2023-03-10T07:06:22.550Z,12.02
2023-03-10T07:08:51.244Z,11.84
2023-03-10T07:11:19.396Z,11.73
2023-03-10T07:13:47.805Z,12.57
2023-03-10T07:16:16.652Z,13.92
2023-03-10T07:18:44.577Z,14.71
2023-03-10T07:21:15.921Z,14.22
2023-03-10T07:23:44.652Z,13.53
2023-03-10T07:26:14.167Z,13.04
2023-03-10T07:28:42.046Z,12.68
2023-03-10T07:31:12.423Z,12.41
2023-03-10T07:33:40.454Z,12.19
2023-03-10T07:36:11.163Z,12.02
2023-03-10T07:38:39.447Z,11.87
2023-03-10T07:41:12.184Z,11.71
2023-03-10T07:43:40.235Z,11.55
2023-03-10T07:46:11.157Z,11.77
2023-03-10T07:48:39.397Z,13.12
2023-03-10T07:51:08.105Z,14.39
2023-03-10T07:53:36.795Z,14.78
2023-03-10T07:56:06.814Z,14.17
2023-03-10T07:58:35.644Z,13.53
2023-03-10T08:01:04.251Z,13.10
2023-03-10T08:03:34.190Z,12.81
2023-03-10T08:06:02.677Z,12.59
2023-03-10T08:08:30.439Z,12.42
2023-03-10T08:11:07.156Z,12.29
2023-03-10T08:13:35.087Z,12.19
2023-03-10T08:16:03.860Z,12.10
2023-03-10T08:18:32.048Z,12.00
2023-03-10T08:21:03.700Z,11.92
2023-03-10T08:23:31.657Z,11.87
2023-03-10T08:26:08.409Z,12.03
2023-03-10T08:28:38.996Z,13.28
2023-03-10T08:31:19.115Z,14.62
2023-03-10T08:33:47.370Z,14.82
2023-03-10T08:36:19.045Z,14.16
2023-03-10T08:38:47.920Z,13.60
2023-03-10T08:41:19.162Z,13.18
2023-03-10T08:43:49.239Z,12.87
2023-03-10T08:46:19.510Z,12.64
2023-03-10T08:48:47.966Z,12.49
2023-03-10T08:51:16.806Z,12.38
2023-03-10T08:53:49.386Z,12.31
2023-03-10T08:56:19.236Z,12.25
2023-03-10T08:58:47.521Z,12.20
2023-03-10T14:02:40.335Z,17.29
2023-03-10T14:05:27.416Z,17.26
2023-03-10T14:08:00.155Z,17.27
2023-03-10T14:10:27.954Z,17.29
2023-03-10T14:12:55.880Z,17.45
2023-03-10T14:15:26.593Z,17.97
2023-03-10T14:18:06.254Z,18.95
2023-03-10T14:20:37.517Z,20.01
2023-03-10T14:23:22.570Z,20.64
2023-03-10T14:25:53.019Z,21.03
2023-03-10T14:28:25.332Z,21.17
2023-03-10T14:30:53.731Z,21.02
2023-03-10T14:33:22.660Z,20.71
2023-03-10T14:35:50.623Z,20.39
2023-03-10T14:38:18.663Z,20.34
2023-03-10T14:40:51.866Z,20.48
2023-03-10T14:43:25.776Z,20.83
2023-03-10T14:45:58.342Z,21.63
2023-03-10T14:48:29.474Z,22.31
2023-03-10T14:50:57.370Z,22.74
2023-03-10T14:53:26.513Z,23.28
2023-03-10T14:55:55.961Z,23.60
2023-03-10T14:58:26.420Z,24.05
2023-03-10T15:00:54.562Z,24.43
2023-03-10T15:03:22.287Z,24.69
2023-03-10T15:05:50.065Z,24.47
2023-03-10T15:08:18.154Z,23.78
2023-03-10T15:10:50.959Z,22.94
2023-03-10T15:13:20.167Z,22.07
2023-03-10T15:15:48.471Z,21.30
2023-03-10T15:18:19.193Z,20.68
2023-03-10T15:20:47.308Z,20.18
2023-03-10T15:23:22.475Z,19.66
2023-03-10T15:25:50.415Z,19.16
2023-03-10T15:28:18.294Z,18.64
2023-03-10T15:30:46.493Z,18.15
2023-03-10T15:33:14.964Z,17.75
2023-03-10T15:35:44.638Z,17.40
2023-03-10T15:38:14.389Z,17.13
2023-03-10T15:40:42.772Z,16.89
2023-03-10T15:43:11.154Z,16.65
2023-03-10T15:45:42.600Z,16.43
2023-03-10T15:48:10.905Z,16.25
2023-03-10T15:50:42.929Z,16.12
2023-03-10T15:53:10.809Z,16.01
2023-03-10T15:55:41.594Z,15.93
2023-03-10T15:58:10.728Z,15.86
2023-03-10T16:00:38.771Z,15.79
2023-03-10T16:03:07.470Z,15.72
2023-03-10T16:05:36.915Z,15.63
2023-03-10T16:08:06.301Z,15.53
2023-03-10T16:10:35.045Z,15.43
2023-03-10T16:13:02.857Z,15.32
2023-03-10T16:15:30.813Z,15.22
2023-03-10T16:17:58.663Z,15.11
2023-03-10T16:20:26.431Z,14.99
2023-03-10T16:22:54.903Z,14.87
2023-03-10T16:25:22.818Z,14.76
2023-03-10T16:27:50.704Z,14.67
2023-03-10T16:30:19.242Z,14.61
2023-03-10T16:32:48.765Z,14.53
2023-03-10T16:35:17.970Z,14.45
2023-03-10T16:37:45.954Z,14.39
2023-03-10T16:40:14.434Z,14.33
2023-03-10T16:42:45.722Z,14.28
2023-03-10T16:45:13.736Z,14.24
2023-03-10T16:47:43.956Z,14.18
2023-03-10T16:50:14.328Z,14.11
2023-03-10T16:52:43.134Z,14.06
2023-03-10T16:55:17.283Z,14.01
2023-03-10T16:57:45.930Z,13.96
2023-03-10T17:00:14.885Z,13.90
2023-03-10T17:02:42.853Z,13.84
2023-03-10T17:05:15.326Z,13.79
2023-03-10T17:07:54.986Z,13.76
2023-03-10T17:10:26.581Z,13.73
2023-03-10T17:12:54.772Z,13.70
2023-03-10T17:15:23.221Z,13.66
2023-03-10T17:17:53.358Z,13.66
2023-03-10T17:20:21.558Z,13.63
2023-03-10T17:22:49.395Z,13.59
2023-03-10T17:25:17.416Z,13.59
2023-03-10T17:27:45.196Z,13.51
2023-03-10T17:30:15.518Z,13.44
2023-03-10T17:32:43.472Z,13.35
2023-03-10T17:35:11.466Z,13.29
2023-03-10T17:37:39.296Z,13.25
2023-03-10T17:40:09.339Z,13.18
2023-03-10T17:42:37.160Z,13.09
2023-03-10T17:45:06.898Z,13.02
2023-03-10T17:47:35.585Z,12.95
2023-03-10T17:50:06.165Z,13.18
2023-03-10T17:52:35.135Z,14.50
2023-03-10T17:55:03.388Z,15.79
2023-03-10T17:57:31.249Z,16.36
2023-03-10T17:59:59.246Z,15.84
2023-03-10T18:02:27.596Z,15.16
2023-03-10T18:04:55.706Z,14.57
2023-03-10T18:07:23.564Z,14.10
2023-03-10T18:09:51.430Z,13.75
2023-03-10T18:12:19.268Z,13.44
2023-03-10T18:14:47.435Z,13.16
2023-03-10T18:17:15.289Z,12.90
2023-03-10T18:19:43.156Z,12.69
2023-03-10T18:22:10.931Z,12.54
2023-03-10T18:24:39.015Z,12.42
2023-03-10T18:27:06.786Z,12.29
2023-03-10T18:29:35.041Z,12.16
2023-03-10T18:32:05.013Z,12.06
2023-03-10T18:34:32.956Z,11.98
2023-03-10T18:37:00.873Z,11.89
2023-03-10T18:39:29.076Z,11.80
2023-03-10T18:41:57.120Z,11.90
2023-03-10T18:44:25.240Z,13.10
2023-03-10T18:46:53.147Z,14.38
2023-03-10T18:49:21.663Z,14.97
2023-03-10T18:51:49.860Z,14.47
2023-03-10T18:54:17.994Z,13.80
2023-03-10T18:56:46.065Z,13.28
2023-03-10T18:59:13.982Z,12.88
2023-03-10T19:01:42.077Z,12.55
2023-03-10T19:04:09.948Z,12.30
2023-03-10T19:06:38.043Z,12.10
2023-03-10T19:09:08.636Z,11.92
2023-03-10T19:11:37.359Z,11.76
2023-03-10T19:14:06.532Z,11.62
2023-03-10T19:16:39.335Z,11.49
2023-03-10T19:19:07.308Z,11.36
2023-03-10T19:21:36.263Z,11.26
2023-03-10T19:24:05.328Z,11.18
2023-03-10T19:26:33.530Z,11.38
2023-03-10T19:29:01.690Z,12.87
2023-03-10T19:31:29.473Z,14.26
2023-03-10T19:33:57.362Z,14.88
2023-03-10T19:36:26.651Z,14.32
2023-03-10T19:38:54.633Z,13.64
2023-03-10T19:41:23.403Z,13.14
2023-03-10T19:43:51.415Z,12.80
2023-03-10T19:46:20.190Z,12.55
2023-03-10T19:48:48.034Z,12.36
2023-03-10T19:51:22.046Z,12.19
2023-03-10T19:53:51.624Z,12.06
2023-03-10T19:56:20.519Z,11.95
2023-03-10T19:58:49.391Z,11.85
2023-03-10T20:01:20.523Z,11.76
2023-03-10T20:03:49.236Z,11.68
2023-03-10T20:06:17.828Z,11.60
2023-03-10T20:08:45.724Z,11.52
2023-03-10T20:11:14.775Z,11.45
2023-03-10T20:13:43.169Z,11.37
2023-03-10T20:16:14.094Z,11.29
2023-03-10T20:18:42.777Z,11.22
2023-03-10T20:21:11.534Z,11.16
2023-03-10T20:23:39.824Z,11.09
2023-03-10T20:26:10.306Z,11.04
2023-03-10T20:28:39.764Z,11.00
2023-03-10T20:31:08.236Z,10.96
2023-03-10T20:33:36.493Z,10.92
2023-03-10T20:36:04.854Z,10.89
2023-03-10T20:38:32.640Z,10.87
2023-03-10T20:41:00.437Z,11.13
2023-03-10T20:43:28.249Z,12.59
2023-03-10T20:45:56.275Z,13.97
2023-03-10T20:48:24.039Z,14.67
2023-03-10T20:50:55.984Z,14.18
2023-03-10T20:53:23.762Z,13.56
2023-03-10T20:55:51.763Z,13.13
2023-03-10T20:58:19.973Z,12.84
2023-03-10T21:00:48.379Z,12.61
2023-03-10T21:03:16.328Z,12.41
2023-03-10T21:05:44.672Z,12.24
2023-03-10T21:08:12.463Z,12.09
2023-03-10T21:10:41.004Z,11.95
2023-03-10T21:13:08.813Z,11.79
2023-03-10T21:15:36.649Z,11.64
2023-03-10T21:18:04.511Z,11.50
2023-03-10T21:20:32.452Z,11.36
2023-03-10T21:23:00.509Z,11.23
2023-03-10T21:25:28.314Z,11.12
2023-03-10T21:27:58.986Z,11.02
2023-03-10T21:30:29.159Z,10.96
2023-03-10T21:32:57.782Z,10.90
2023-03-10T21:35:27.581Z,11.14
2023-03-10T21:37:57.441Z,12.54
2023-03-10T21:40:26.645Z,13.88
2023-03-10T21:42:54.762Z,14.53
2023-03-10T21:45:24.181Z,13.99
2023-03-10T21:47:51.979Z,13.30
2023-03-10T21:50:19.812Z,12.80
2023-03-10T21:52:50.024Z,12.42
2023-03-10T21:55:21.261Z,12.10
2023-03-10T21:57:49.701Z,11.81
2023-03-10T22:00:19.838Z,11.57
2023-03-10T22:02:47.858Z,11.36
2023-03-10T22:05:17.308Z,11.21
2023-03-10T22:07:45.370Z,11.10
2023-03-10T22:10:14.534Z,11.01
2023-03-10T22:12:42.312Z,11.24
2023-03-10T22:15:15.963Z,12.60
2023-03-10T22:17:43.734Z,13.89
2023-03-10T22:20:23.660Z,14.56
2023-03-10T22:22:51.893Z,14.05
2023-03-10T22:25:19.736Z,13.39
2023-03-10T22:27:52.839Z,12.84
2023-03-10T22:30:22.470Z,12.42
2023-03-10T22:32:50.706Z,12.12
2023-03-10T22:35:18.887Z,11.88
2023-03-10T22:37:46.694Z,11.71
2023-03-10T22:40:17.289Z,11.55
2023-03-10T22:42:46.083Z,11.40
2023-03-10T22:45:31.024Z,11.54
2023-03-10T22:48:01.748Z,13.00
2023-03-10T22:50:38.932Z,13.99
2023-03-10T22:53:09.290Z,13.57
2023-03-10T22:55:37.215Z,12.92
2023-03-10T22:58:07.240Z,12.43
2023-03-10T23:00:35.718Z,12.02
2023-03-10T23:03:06.299Z,11.73
2023-03-10T23:05:34.786Z,11.51
2023-03-10T23:08:02.556Z,11.65
2023-03-10T23:10:32.631Z,12.94
2023-03-10T23:13:07.314Z,14.12
2023-03-10T23:15:37.641Z,14.67
2023-03-10T23:18:06.348Z,14.08
2023-03-10T23:20:41.355Z,13.38
2023-03-10T23:23:11.426Z,12.81
2023-03-10T23:25:41.269Z,12.40
2023-03-10T23:28:10.924Z,12.10
2023-03-10T23:30:40.535Z,12.12
2023-03-10T23:33:10.063Z,13.23
2023-03-10T23:35:37.815Z,14.28
2023-03-10T23:38:06.254Z,14.75
2023-03-10T23:40:35.882Z,14.18
2023-03-10T23:43:06.499Z,13.48
2023-03-10T23:45:37.906Z,12.94
2023-03-10T23:48:08.419Z,12.50
2023-03-10T23:50:38.826Z,12.15
2023-03-10T23:53:07.788Z,11.89
2023-03-10T23:55:38.666Z,11.96
2023-03-10T23:58:07.896Z,13.18
